Time;durP1;ratioP1;P1;durP2;ratioP2;P2;SDS_P1;SDS_P2;PMS_P1;PMS_P2;Temp;Humidity;BMP_temperature;BMP_pressure;BME280_temperature;BME280_humidity;BME280_pressure;Samples;Min_cycle;Max_cycle;Signal;HPM_P1;HPM_P2
2022/05/12 00:01:00;;;;;;;9.32;3.22;;;;;;;16.37;59.82;101336.19;4955170;28;20078;-78
2022/05/12 00:03:25;;;;;;;9.02;3.17;;;;;;;16.24;60.13;101341.34;4954881;28;20123;-80
2022/05/12 00:05:50;;;;;;;14.90;3.55;;;;;;;16.19;60.19;101347.44;4954819;28;20031;-78
2022/05/12 00:08:16;;;;;;;12.35;3.35;;;;;;;16.16;60.69;101343.91;4955224;28;20023;-79
2022/05/12 00:10:42;;;;;;;9.18;3.05;;;;;;;16.04;60.66;101354.31;4955542;28;20015;-79
2022/05/12 00:13:08;;;;;;;13.43;3.75;;;;;;;16.02;60.68;101353.44;4955137;28;20506;-80
2022/05/12 00:15:36;;;;;;;13.65;3.08;;;;;;;15.93;60.64;101351.59;4936797;28;20027;-78
2022/05/12 00:18:04;;;;;;;10.43;3.00;;;;;;;15.94;60.87;101353.34;4955084;28;20447;-78
2022/05/12 00:20:31;;;;;;;9.05;3.40;;;;;;;15.95;60.55;101360.34;4954202;28;20106;-79
2022/05/12 00:23:29;;;;;;;10.43;3.10;;;;;;;15.92;60.63;101356.84;4954093;28;20027;-77
2022/05/12 00:25:56;;;;;;;11.55;3.55;;;;;;;15.80;60.72;101358.47;4953988;28;20122;-79
2022/05/12 00:28:23;;;;;;;11.70;3.03;;;;;;;15.68;61.05;101365.31;4955219;28;20083;-80
2022/05/12 00:30:51;;;;;;;9.43;3.42;;;;;;;15.69;61.64;101361.81;4943356;28;20125;-79
2022/05/12 00:33:18;;;;;;;8.75;2.90;;;;;;;15.60;60.94;101360.84;4954674;28;20035;-78
2022/05/12 00:35:45;;;;;;;11.27;3.50;;;;;;;15.57;61.50;101363.44;4935186;28;20062;-79
2022/05/12 00:38:11;;;;;;;14.90;3.50;;;;;;;15.48;61.37;101372.09;4954883;28;20031;-78
2022/05/12 00:40:39;;;;;;;10.02;3.00;;;;;;;15.44;61.32;101378.19;4953981;28;20031;-78
2022/05/12 00:43:07;;;;;;;11.35;3.53;;;;;;;15.45;61.80;101379.94;4946639;28;20031;-77
2022/05/12 00:45:36;;;;;;;11.13;3.35;;;;;;;15.40;61.64;101373.75;4934195;28;20031;-78
2022/05/12 00:48:03;;;;;;;9.68;3.30;;;;;;;15.38;61.61;101380.72;4954511;28;20070;-78
2022/05/12 00:50:33;;;;;;;8.93;3.30;;;;;;;15.32;62.00;101380.63;4954103;28;20086;-78
2022/05/12 00:53:01;;;;;;;11.95;3.15;;;;;;;15.26;62.34;101385.81;4954227;28;20035;-78
2022/05/12 00:55:36;;;;;;;9.00;2.55;;;;;;;15.28;61.72;101389.38;4935572;29;20511;-78
2022/05/12 00:58:06;;;;;;;10.02;3.08;;;;;;;15.21;62.02;101387.50;4951665;28;20050;-78
2022/05/12 01:00:32;;;;;;;9.43;2.95;;;;;;;15.20;62.02;101401.50;4954775;28;20023;-78
2022/05/12 01:03:00;;;;;;;7.57;2.88;;;;;;;15.10;61.90;101396.09;4954372;28;20027;-78
2022/05/12 01:05:27;;;;;;;9.30;2.60;;;;;;;15.11;62.01;101400.50;4953374;28;20543;-78
2022/05/12 01:07:55;;;;;;;10.40;3.08;;;;;;;15.02;62.23;101396.84;4953805;28;20391;-78
2022/05/12 01:10:22;;;;;;;8.90;3.30;;;;;;;15.04;62.21;101400.41;4948468;28;20090;-79
2022/05/12 01:12:49;;;;;;;8.32;2.50;;;;;;;14.95;62.22;101411.66;4954515;28;20027;-79
2022/05/12 01:15:17;;;;;;;10.13;3.00;;;;;;;14.92;62.33;101404.59;4953215;28;20130;-79
2022/05/12 01:17:43;;;;;;;9.20;2.78;;;;;;;14.86;62.48;101408.88;4953462;28;20402;-78
2022/05/12 01:20:09;;;;;;;11.52;2.97;;;;;;;14.82;62.71;101409.72;4952813;28;20035;-79
2022/05/12 01:22:59;;;;;;;8.40;2.80;;;;;;;14.80;62.38;101414.91;4952808;28;20475;-78
2022/05/12 01:25:28;;;;;;;9.55;3.20;;;;;;;14.77;62.76;101414.84;4953824;28;20031;-79
2022/05/12 01:27:53;;;;;;;11.27;3.65;;;;;;;14.83;63.41;101421.94;4951952;28;20495;-78
2022/05/12 01:30:21;;;;;;;13.05;3.78;;;;;;;14.82;63.42;101414.97;4952610;28;20038;-78
2022/05/12 01:32:47;;;;;;;7.88;3.22;;;;;;;14.82;62.98;101422.81;4954218;28;20502;-79
2022/05/12 01:35:18;;;;;;;10.35;3.83;;;;;;;14.81;62.98;101423.69;4934675;28;20078;-79
2022/05/12 01:37:45;;;;;;;8.23;3.20;;;;;;;14.81;62.81;101429.78;4952934;28;20600;-79
2022/05/12 01:40:14;;;;;;;14.35;3.45;;;;;;;14.78;62.98;101440.25;4936495;28;20648;-79
2022/05/12 01:42:40;;;;;;;8.07;3.65;;;;;;;14.74;62.94;101443.66;4953605;28;20036;-79
2022/05/12 01:45:07;;;;;;;10.05;3.75;;;;;;;14.68;63.06;101444.44;4953394;28;20031;-79
2022/05/12 01:47:34;;;;;;;14.77;4.03;;;;;;;14.67;63.91;101450.59;4952949;28;20114;-79
2022/05/12 01:49:59;;;;;;;11.57;3.72;;;;;;;14.64;63.91;101445.25;4950905;28;20031;-79
2022/05/12 01:52:25;;;;;;;12.88;4.20;;;;;;;14.64;64.00;101453.13;4952146;28;20046;-79
2022/05/12 01:54:50;;;;;;;13.10;4.20;;;;;;;14.62;63.75;101454.84;4952135;28;20078;-79
2022/05/12 01:57:16;;;;;;;11.48;4.10;;;;;;;14.55;64.30;101455.56;4952983;28;20034;-79
2022/05/12 01:59:41;;;;;;;15.38;4.25;;;;;;;14.63;64.64;101455.72;4952465;28;20020;-79
2022/05/12 02:02:06;;;;;;;17.33;4.70;;;;;;;14.64;64.08;101460.13;4935696;28;20023;-78
2022/05/12 02:04:32;;;;;;;13.18;4.35;;;;;;;14.62;64.66;101460.09;4952578;28;20102;-78
2022/05/12 02:06:57;;;;;;;13.70;4.80;;;;;;;14.58;64.86;101477.50;4952643;28;20027;-79
2022/05/12 02:09:22;;;;;;;12.88;4.28;;;;;;;14.57;64.99;101466.97;4952181;28;20026;-78
2022/05/12 02:11:47;;;;;;;11.45;4.30;;;;;;;14.57;64.91;101466.97;4953384;28;20113;-78
2022/05/12 02:14:14;;;;;;;13.85;4.93;;;;;;;14.59;65.13;101470.50;4953016;28;20498;-78
2022/05/12 02:16:40;;;;;;;17.10;4.82;;;;;;;14.64;65.50;101484.59;4952589;28;20094;-78
2022/05/12 02:19:06;;;;;;;13.25;4.63;;;;;;;14.58;65.16;101482.75;4935274;29;20023;-78
2022/05/12 02:21:33;;;;;;;21.02;4.82;;;;;;;14.54;65.10;101483.53;4952685;28;20486;-78
2022/05/12 02:23:59;;;;;;;16.25;4.47;;;;;;;14.50;65.42;101491.34;4952438;28;20043;-79
2022/05/12 02:26:25;;;;;;;14.82;5.22;;;;;;;14.47;65.37;101486.00;4934195;28;20077;-79
2022/05/12 02:28:50;;;;;;;22.15;5.30;;;;;;;14.44;65.13;101489.50;4952323;28;20031;-78
2022/05/12 02:31:16;;;;;;;19.30;4.68;;;;;;;14.40;65.31;101490.28;4951588;28;20106;-78
2022/05/12 02:33:41;;;;;;;16.63;5.03;;;;;;;14.36;65.40;101494.56;4935867;29;20082;-78
2022/05/12 02:36:06;;;;;;;18.17;5.10;;;;;;;14.27;65.66;101491.78;4950988;28;20056;-78
2022/05/12 02:38:32;;;;;;;16.20;5.50;;;;;;;14.27;65.59;101494.41;4952408;28;20035;-79
2022/05/12 02:55:04;;;;;;;16.58;5.18;;;;;;;14.04;65.40;101520.16;4953005;28;20041;-79
2022/05/12 02:57:29;;;;;;;16.42;4.78;;;;;;;13.98;66.26;101523.53;4952116;28;20106;-80
2022/05/12 02:59:55;;;;;;;14.18;4.63;;;;;;;13.92;66.37;101515.56;4952134;28;20224;-79
2022/05/12 03:02:20;;;;;;;15.63;4.40;;;;;;;13.89;65.88;101523.38;4951012;28;20387;-78
2022/05/12 03:04:46;;;;;;;12.88;4.68;;;;;;;13.84;66.65;101527.63;4958118;28;20034;-79
2022/05/12 03:12:16;;;;;;;12.98;4.75;;;;;;;13.61;65.99;101528.00;4959533;28;20050;-78
2022/05/12 03:14:42;;;;;;;18.70;5.43;;;;;;;13.60;67.52;101530.56;4963465;28;20032;-78
2022/05/12 03:17:07;;;;;;;21.42;5.97;;;;;;;13.61;67.52;101532.34;4969989;28;20049;-78
2022/05/12 03:19:32;;;;;;;18.67;6.18;;;;;;;13.63;67.42;101531.53;4953627;28;20169;-79
2022/05/12 03:21:58;;;;;;;19.52;5.82;;;;;;;13.63;67.89;101535.88;4971030;28;20105;-79
2022/05/12 03:24:24;;;;;;;21.95;6.57;;;;;;;13.62;68.22;101536.75;4971166;28;20454;-78
2022/05/12 03:26:49;;;;;;;16.27;6.40;;;;;;;13.59;67.97;101542.78;4970888;28;20031;-78
2022/05/12 03:29:15;;;;;;;22.27;7.15;;;;;;;13.57;67.94;101541.88;4969823;28;20030;-78
2022/05/12 03:31:40;;;;;;;24.13;7.35;;;;;;;13.56;68.13;101540.13;4971690;28;20026;-79
2022/05/12 03:34:06;;;;;;;20.17;7.22;;;;;;;13.58;67.78;101541.03;4969801;28;20027;-79
2022/05/12 03:36:35;;;;;;;24.52;7.85;;;;;;;13.59;68.10;101548.03;4971016;28;20037;-78
2022/05/12 03:39:02;;;;;;;27.00;8.32;;;;;;;13.55;68.13;101554.91;4952484;28;20058;-79
2022/05/12 03:41:28;;;;;;;19.58;7.43;;;;;;;13.56;67.87;101551.47;4971928;28;20105;-78
2022/05/12 03:46:37;;;;;;;24.63;8.13;;;;;;;13.53;67.96;101571.47;4971096;28;20046;-78
2022/05/12 03:49:02;;;;;;;21.60;8.63;;;;;;;13.48;68.71;101567.84;4967854;28;20027;-78
2022/05/12 03:51:28;;;;;;;28.02;9.05;;;;;;;13.47;68.73;101573.91;4969628;28;20023;-78
2022/05/12 03:53:53;;;;;;;29.75;9.68;;;;;;;13.44;69.21;101566.00;4969702;28;20027;-79
2022/05/12 03:56:19;;;;;;;27.38;10.05;;;;;;;13.46;69.46;101570.44;4969094;28;20457;-78
2022/05/12 03:58:44;;;;;;;26.45;9.90;;;;;;;13.42;69.40;101565.97;4970536;28;20061;-78
2022/05/12 04:01:10;;;;;;;29.40;11.05;;;;;;;13.42;69.69;101578.19;4968967;28;20045;-78
2022/05/12 04:03:35;;;;;;;29.45;10.73;;;;;;;13.41;69.85;101585.13;4970617;28;20117;-78
2022/05/12 04:06:02;;;;;;;35.72;11.10;;;;;;;13.38;70.15;101588.59;4969524;28;20517;-78
2022/05/12 04:08:28;;;;;;;27.90;10.75;;;;;;;13.39;70.11;101587.72;4955996;28;20037;-79
2022/05/12 04:10:53;;;;;;;29.88;10.95;;;;;;;13.44;70.00;101594.78;4964139;28;20134;-79
2022/05/12 04:13:18;;;;;;;37.17;12.32;;;;;;;13.41;70.06;101594.72;4937795;28;20174;-78
2022/05/12 04:15:44;;;;;;;30.52;12.27;;;;;;;13.37;70.03;101589.41;4954437;28;20023;-78
2022/05/12 04:18:09;;;;;;;34.03;11.80;;;;;;;13.35;70.31;101593.75;4953667;28;20077;-78
2022/05/12 04:20:36;;;;;;;32.22;13.15;;;;;;;13.34;70.65;101599.81;4954749;28;20501;-78
2022/05/12 04:23:02;;;;;;;35.83;13.55;;;;;;;13.33;70.73;101608.47;4953059;28;20042;-78
2022/05/12 04:25:29;;;;;;;34.85;12.88;;;;;;;13.36;70.69;101605.97;4953928;28;20291;-79
2022/05/12 04:27:55;;;;;;;43.72;14.15;;;;;;;13.33;70.99;101605.88;4954235;28;20031;-78
2022/05/12 04:30:26;;;;;;;34.95;14.32;;;;;;;13.26;71.47;101616.16;4954790;28;20019;-78
2022/05/12 04:32:51;;;;;;;40.30;14.00;;;;;;;13.26;71.87;101617.03;4954474;28;20606;-78
2022/05/12 04:35:18;;;;;;;45.22;15.38;;;;;;;13.29;71.86;101621.47;4936213;28;20206;-78
2022/05/12 04:37:54;;;;;;;44.42;14.68;;;;;;;13.30;71.56;101621.50;4954555;28;20023;-78
2022/05/12 04:40:26;;;;;;;44.15;15.82;;;;;;;13.28;72.22;101624.91;4954621;28;20050;-78
2022/05/12 04:42:53;;;;;;;41.28;15.95;;;;;;;13.26;72.26;101624.88;4953494;28;20027;-78
2022/05/12 04:45:20;;;;;;;50.25;16.58;;;;;;;13.29;72.12;101634.53;4953438;28;20487;-78
2022/05/12 04:47:46;;;;;;;47.67;16.58;;;;;;;13.33;72.63;101637.28;4936867;28;20031;-78
2022/05/12 04:50:15;;;;;;;48.08;17.35;;;;;;;13.33;72.79;101636.41;4953993;28;20027;-78
2022/05/12 04:52:40;;;;;;;49.00;17.90;;;;;;;13.34;73.05;101633.84;4954515;28;20106;-78
2022/05/12 04:55:06;;;;;;;54.22;18.83;;;;;;;13.35;73.08;101633.00;4953263;28;20614;-78
2022/05/12 04:57:37;;;;;;;50.17;17.80;;;;;;;13.37;72.95;101636.53;4954065;28;20027;-77
2022/05/12 05:00:03;;;;;;;55.17;19.08;;;;;;;13.34;73.55;101639.09;4953970;28;20023;-78
2022/05/12 05:02:29;;;;;;;49.83;18.25;;;;;;;13.37;73.39;101643.53;4954146;28;20035;-77
2022/05/12 05:04:54;;;;;;;57.53;19.25;;;;;;;13.37;74.05;101649.63;4953818;28;20027;-78
2022/05/12 05:07:19;;;;;;;54.03;19.23;;;;;;;13.36;74.06;101642.63;4935824;28;20498;-78
2022/05/12 05:09:45;;;;;;;51.67;19.75;;;;;;;13.39;74.22;101653.16;4954624;28;20086;-78
2022/05/12 05:12:10;;;;;;;57.00;20.48;;;;;;;13.43;73.93;101656.75;4952731;28;20039;-78
2022/05/12 05:14:36;;;;;;;62.33;21.02;;;;;;;13.44;74.62;101668.09;4954385;28;20035;-78
2022/05/12 05:17:02;;;;;;;63.15;21.70;;;;;;;13.50;74.48;101668.28;4952337;28;20104;-78
2022/05/12 05:19:27;;;;;;;64.78;21.08;;;;;;;13.54;74.33;101676.22;4953567;28;20019;-78
2022/05/12 05:21:52;;;;;;;61.90;21.35;;;;;;;13.59;74.07;101668.50;4953336;28;20023;-77
2022/05/12 05:24:18;;;;;;;66.63;21.83;;;;;;;13.62;74.36;101673.78;4941307;28;20486;-78
2022/05/12 05:26:44;;;;;;;69.65;21.85;;;;;;;13.66;74.33;101680.88;4951583;28;20034;-78
2022/05/12 05:29:10;;;;;;;74.38;23.63;;;;;;;13.69;74.78;101682.69;4936962;28;20114;-78
2022/05/12 05:31:38;;;;;;;74.57;23.23;;;;;;;13.70;74.21;101679.22;4951878;28;20027;-78
2022/05/12 05:34:03;;;;;;;70.70;22.90;;;;;;;13.71;74.35;101689.72;4936984;29;20035;-78
2022/05/12 05:36:28;;;;;;;76.78;23.63;;;;;;;13.73;75.36;101695.91;4953239;28;20521;-78
2022/05/12 05:38:54;;;;;;;70.00;24.05;;;;;;;13.79;74.82;101699.50;4953512;28;20066;-78
2022/05/12 05:41:19;;;;;;;72.78;24.17;;;;;;;13.85;74.53;101705.78;4953124;28;20053;-78
2022/05/12 05:43:44;;;;;;;75.72;24.83;;;;;;;13.87;74.56;101708.44;4953311;28;20094;-78
2022/05/12 05:46:10;;;;;;;81.22;25.23;;;;;;;13.83;75.27;101707.50;4953015;28;20030;-78
2022/05/12 05:48:35;;;;;;;72.28;25.17;;;;;;;13.87;75.10;101713.69;4953408;28;20031;-77
2022/05/12 05:53:44;;;;;;;73.55;25.60;;;;;;;13.92;75.74;101730.41;4953011;28;20042;-78
2022/05/12 05:56:14;;;;;;;80.15;25.73;;;;;;;13.98;75.87;101729.66;4952370;28;20039;-77
2022/05/12 05:58:41;;;;;;;77.97;25.95;;;;;;;14.15;75.27;101737.91;4953577;28;20101;-78
2022/05/12 06:01:06;;;;;;;73.95;24.33;;;;;;;14.44;74.73;101741.22;4935411;29;20066;-78
2022/05/12 06:03:31;;;;;;;60.70;20.88;;;;;;;14.75;73.00;101742.75;4951929;28;20035;-78
2022/05/12 06:05:57;;;;;;;58.58;21.75;;;;;;;15.04;72.47;101752.97;4951928;28;20027;-78
2022/05/12 06:08:22;;;;;;;63.53;22.95;;;;;;;15.34;71.27;101743.91;4952898;28;20393;-78
2022/05/12 06:10:48;;;;;;;66.65;24.50;;;;;;;15.60;68.19;101744.38;4947789;28;20040;-77
2022/05/12 06:13:14;;;;;;;66.60;23.00;;;;;;;15.71;68.16;101752.44;4947403;28;20462;-77
2022/05/12 06:15:40;;;;;;;60.13;22.90;;;;;;;15.73;69.23;101744.56;4935310;28;20031;-78
2022/05/12 06:18:07;;;;;;;56.88;23.27;;;;;;;15.67;69.36;101755.00;4951827;28;20023;-78
2022/05/12 06:20:32;;;;;;;53.40;22.35;;;;;;;15.60;69.99;101754.03;4952405;28;20018;-78
2022/05/12 06:22:58;;;;;;;51.47;22.58;;;;;;;15.47;70.61;101759.03;4952860;28;20019;-78
2022/05/12 06:25:23;;;;;;;52.72;21.27;;;;;;;15.48;70.87;101758.19;4952425;28;20023;-78
2022/05/12 06:27:51;;;;;;;53.58;21.98;;;;;;;15.51;70.37;101764.34;4951872;28;20031;-78
2022/05/12 06:30:17;;;;;;;45.75;20.10;;;;;;;15.53;71.81;101770.53;4951772;28;20031;-78
2022/05/12 06:32:44;;;;;;;41.95;20.00;;;;;;;15.57;71.19;101772.31;4952328;28;20031;-78
2022/05/12 06:35:12;;;;;;;43.28;19.17;;;;;;;15.59;70.70;101773.25;4951321;28;20093;-77
2022/05/12 06:37:38;;;;;;;35.75;19.13;;;;;;;15.59;70.32;101773.25;4951062;28;20144;-78
2022/05/12 06:40:04;;;;;;;40.22;19.27;;;;;;;15.61;70.63;101769.81;4951802;28;20510;-78
2022/05/12 06:42:31;;;;;;;42.28;18.60;;;;;;;15.65;70.20;101774.22;4950931;28;20511;-79
2022/05/12 06:44:56;;;;;;;45.08;20.02;;;;;;;15.66;70.06;101780.38;4935853;28;20011;-78
2022/05/12 06:47:22;;;;;;;34.33;18.15;;;;;;;15.68;69.41;101791.78;4951177;28;20034;-77
2022/05/12 06:49:51;;;;;;;40.13;19.88;;;;;;;15.68;70.66;101789.16;4952882;28;20027;-78
2022/05/12 06:52:17;;;;;;;37.08;17.83;;;;;;;15.72;68.81;101788.38;4950344;28;20170;-78
2022/05/12 06:54:44;;;;;;;39.03;19.08;;;;;;;15.75;69.93;101788.41;4951728;28;20085;-82
2022/05/12 06:57:10;;;;;;;36.58;18.85;;;;;;;15.73;69.08;101792.78;4931435;29;20114;-78
2022/05/12 06:59:37;;;;;;;37.25;19.38;;;;;;;15.66;68.46;101801.41;4950395;28;20141;-78
2022/05/12 07:02:04;;;;;;;36.72;19.73;;;;;;;15.66;67.67;101798.78;4951615;28;20039;-78
2022/05/12 07:04:31;;;;;;;35.90;19.73;;;;;;;15.68;69.55;101804.94;4951984;28;20027;-78
2022/05/12 07:06:56;;;;;;;32.78;18.60;;;;;;;15.74;68.03;101799.81;4951754;28;20577;-78
2022/05/12 07:09:22;;;;;;;35.13;19.63;;;;;;;15.73;67.62;101813.78;4951563;28;20031;-78
2022/05/12 07:11:47;;;;;;;33.50;19.10;;;;;;;15.77;68.29;101807.75;4951578;28;20062;-78
2022/05/12 07:14:14;;;;;;;34.78;19.55;;;;;;;15.80;68.08;101810.47;4934859;28;20191;-78
2022/05/12 07:16:41;;;;;;;31.08;18.15;;;;;;;15.86;66.93;101809.69;4951717;28;20101;-78
2022/05/12 07:19:07;;;;;;;25.95;17.27;;;;;;;15.94;66.61;101815.94;4950113;28;20015;-79
2022/05/12 07:27:00;;;;;;;28.25;17.63;;;;;;;16.09;66.83;101815.31;4950886;28;20046;-79
2022/05/12 07:29:27;;;;;;;26.15;16.98;;;;;;;16.16;67.19;101819.81;4935152;29;20028;-80
2022/05/12 07:31:53;;;;;;;23.90;15.98;;;;;;;16.19;64.69;101828.59;4951766;28;20030;-78
2022/05/12 07:34:19;;;;;;;30.15;18.00;;;;;;;16.17;65.50;101826.81;4948581;28;20023;-79
2022/05/12 07:36:48;;;;;;;27.85;18.10;;;;;;;16.20;66.12;101830.38;4949864;28;20062;-79
2022/05/12 07:39:13;;;;;;;28.30;16.40;;;;;;;16.16;63.45;101835.59;4952176;28;20125;-77
2022/05/12 07:41:41;;;;;;;25.23;16.92;;;;;;;16.09;62.68;101839.00;4953469;28;20507;-78
2022/05/12 07:44:09;;;;;;;26.90;17.63;;;;;;;16.03;63.83;101830.97;4950651;28;20031;-79
2022/05/12 07:46:35;;;;;;;26.65;15.77;;;;;;;16.04;62.88;101835.38;4949773;28;20031;-78
2022/05/12 07:49:00;;;;;;;26.15;16.65;;;;;;;16.10;64.56;101829.34;4951824;28;20031;-77
2022/05/12 07:51:25;;;;;;;27.17;16.60;;;;;;;16.17;63.74;101831.22;4937687;28;20553;-79
2022/05/12 07:53:52;;;;;;;29.10;15.70;;;;;;;16.28;64.65;101840.16;4952654;28;20029;-78
2022/05/12 07:56:20;;;;;;;23.08;16.42;;;;;;;16.37;63.97;101839.44;4955230;28;20023;-78
2022/05/12 07:58:46;;;;;;;26.80;16.23;;;;;;;16.41;63.53;101841.25;4954884;28;20019;-77
2022/05/12 08:01:12;;;;;;;24.00;16.50;;;;;;;16.36;62.64;101842.91;4954147;28;20294;-79
2022/05/12 08:03:39;;;;;;;22.77;15.38;;;;;;;16.34;62.38;101849.91;4954155;28;20405;-79
2022/05/12 08:06:05;;;;;;;26.02;14.30;;;;;;;16.35;63.48;101851.66;4954814;28;20027;-80
2022/05/12 08:08:30;;;;;;;23.23;14.75;;;;;;;16.33;60.89;101845.50;4953630;28;20383;-79
2022/05/12 08:10:55;;;;;;;21.75;14.23;;;;;;;16.26;60.45;101854.16;4945595;28;20526;-77
2022/05/12 08:13:22;;;;;;;20.20;14.32;;;;;;;16.27;61.54;101858.56;4950113;28;20027;-79
2022/05/12 08:15:49;;;;;;;20.67;14.38;;;;;;;16.24;60.11;101850.63;4949084;28;20063;-79
2022/05/12 08:18:21;;;;;;;21.63;13.88;;;;;;;16.22;59.50;101853.22;4953872;28;20082;-79
2022/05/12 08:20:47;;;;;;;18.25;11.98;;;;;;;16.28;60.09;101863.84;4951045;28;20055;-81
2022/05/12 08:23:13;;;;;;;19.92;10.70;;;;;;;16.33;59.21;101862.16;4945877;28;20030;-82
2022/05/12 08:25:39;;;;;;;18.45;11.88;;;;;;;16.42;59.63;101847.38;4934199;28;20173;-79
2022/05/12 08:28:05;;;;;;;17.35;12.40;;;;;;;16.49;58.81;101855.38;4952669;28;20391;-80
2022/05/12 08:30:31;;;;;;;22.45;12.95;;;;;;;16.56;59.24;101855.50;4950906;28;20173;-80
2022/05/12 08:32:58;;;;;;;20.05;13.07;;;;;;;16.60;57.51;101852.06;4948640;28;20499;-81
2022/05/12 08:35:24;;;;;;;18.05;10.70;;;;;;;16.66;57.69;101852.13;4952447;28;20041;-80
2022/05/12 08:37:49;;;;;;;17.65;10.82;;;;;;;16.71;56.98;101846.94;4949756;28;20058;-82
2022/05/12 08:40:24;;;;;;;16.05;10.93;;;;;;;16.79;57.79;101855.84;4948961;28;20122;-79
2022/05/12 08:42:49;;;;;;;17.67;10.48;;;;;;;16.84;56.20;101849.78;4947332;28;20050;-77
2022/05/12 08:45:18;;;;;;;18.27;10.55;;;;;;;16.85;55.96;101854.16;4951097;28;20113;-78
2022/05/12 08:47:47;;;;;;;20.38;10.63;;;;;;;16.85;56.49;101859.41;4926599;28;20019;-77
2022/05/12 08:50:22;;;;;;;13.05;9.25;;;;;;;16.89;56.07;101854.22;4951768;28;20033;-79
2022/05/12 08:53:02;;;;;;;12.50;7.43;;;;;;;16.92;53.81;101854.28;4950926;28;20039;-82
2022/05/12 08:55:31;;;;;;;;;;;;;;;16.99;55.15;101856.16;4946900;28;20027;-79
2022/05/12 08:57:59;;;;;;;10.35;6.05;;;;;;;16.93;53.28;101863.94;4948478;28;19923;-83
2022/05/12 09:00:27;;;;;;;15.55;7.88;;;;;;;16.84;52.76;101862.03;4948254;28;20562;-78
2022/05/12 09:03:17;;;;;;;10.53;6.17;;;;;;;16.80;52.11;101871.66;4951345;28;20482;-78
2022/05/12 09:06:05;;;;;;;12.02;5.88;;;;;;;16.84;53.52;101862.94;4953482;28;20035;-77
2022/05/12 09:10:59;;;;;;;9.95;5.78;;;;;;;17.01;51.63;101872.84;4975994;23;20573;-77
2022/05/12 09:13:30;;;;;;;11.55;7.03;;;;;;;17.10;51.31;101870.31;4961970;28;20034;-76
2022/05/12 09:16:08;;;;;;;10.85;6.55;;;;;;;17.20;51.35;101864.28;4949015;28;20038;-77
2022/05/12 09:18:36;;;;;;;10.68;6.57;;;;;;;17.30;52.50;101867.06;4965670;28;20026;-77
2022/05/12 09:21:11;;;;;;;12.00;7.80;;;;;;;17.36;52.36;101862.72;4969791;28;20118;-76
2022/05/12 09:23:38;;;;;;;16.88;11.60;;;;;;;17.46;53.12;101869.00;4972740;28;20317;-77
2022/05/12 09:26:34;;;;;;;13.45;9.23;;;;;;;17.55;53.65;101869.13;4968931;28;20034;-77
2022/05/12 09:29:25;;;;;;;14.45;9.88;;;;;;;17.63;53.01;101870.97;4964314;28;20073;-77
2022/05/12 09:31:55;;;;;;;15.40;9.15;;;;;;;17.61;50.41;101868.31;4968450;28;20034;-77
2022/05/12 09:34:31;;;;;;;14.63;7.88;;;;;;;17.54;49.38;101869.97;4963933;28;20455;-77
2022/05/12 09:37:12;;;;;;;14.48;7.35;;;;;;;17.43;48.04;101868.97;4964521;28;20077;-71
2022/05/12 09:39:41;;;;;;;14.70;8.38;;;;;;;17.37;49.08;101868.91;4966202;28;20019;-70
2022/05/12 09:42:15;;;;;;;9.88;5.80;;;;;;;17.45;47.28;101867.25;4972305;28;20023;-70
2022/05/12 09:44:52;;;;;;;8.90;6.70;;;;;;;17.53;46.97;101865.56;4968239;28;20138;-71
2022/05/12 09:47:17;;;;;;;13.20;7.93;;;;;;;17.62;48.22;101866.56;4953656;28;20035;-71
2022/05/12 09:49:46;;;;;;;17.25;9.50;;;;;;;17.68;48.01;101863.97;4972371;28;20029;-70
2022/05/12 09:52:42;;;;;;;12.07;8.20;;;;;;;17.79;51.00;101859.69;4972202;28;20514;-71
2022/05/12 09:55:10;;;;;;;12.30;6.90;;;;;;;17.88;51.78;101854.50;4956687;28;20034;-71
2022/05/12 09:57:35;;;;;;;14.18;7.97;;;;;;;17.98;52.38;101858.16;4971962;28;20030;-70
2022/05/12 10:00:03;;;;;;;14.02;7.72;;;;;;;18.06;48.80;101860.84;4972353;28;20042;-71
2022/05/12 10:08:18;;;;;;;11.20;6.40;;;;;;;17.96;48.63;101853.72;4963347;28;20177;-71
2022/05/12 10:10:46;;;;;;;13.18;6.68;;;;;;;17.92;47.67;101865.13;4965900;28;20085;-71
2022/05/12 10:13:30;;;;;;;11.82;6.35;;;;;;;17.85;46.63;101869.44;4953314;28;20118;-71
2022/05/12 10:15:56;;;;;;;12.40;6.85;;;;;;;17.78;48.34;101863.19;4965472;28;20038;-71
2022/05/12 10:18:38;;;;;;;13.95;6.78;;;;;;;17.81;48.52;101851.81;4950627;28;20027;-71
2022/05/12 10:21:14;;;;;;;12.10;5.82;;;;;;;17.87;46.81;101852.75;4953223;28;20031;-71
2022/05/12 10:23:59;;;;;;;9.93;4.75;;;;;;;17.89;46.60;101852.78;4956618;28;20035;-70
2022/05/12 10:26:54;;;;;;;10.05;4.18;;;;;;;17.87;46.07;101850.13;4954420;28;20118;-70
2022/05/12 10:29:57;;;;;;;10.27;5.03;;;;;;;17.85;46.05;101857.13;4951942;28;20030;-70
2022/05/12 10:32:56;;;;;;;17.02;9.50;;;;;;;17.83;46.93;101866.78;4952182;28;20065;-70
2022/05/12 10:35:45;;;;;;;15.25;10.05;;;;;;;17.84;47.63;101865.91;4956502;28;20030;-70
2022/05/12 10:38:30;;;;;;;15.02;8.70;;;;;;;17.86;46.76;101858.88;4950634;28;20109;-70
2022/05/12 10:41:12;;;;;;;14.98;9.15;;;;;;;17.86;46.76;101864.16;4958376;28;20014;-70
2022/05/12 10:43:52;;;;;;;13.40;9.30;;;;;;;17.79;45.10;101874.66;4956647;28;20042;-71
2022/05/12 10:46:29;;;;;;;12.93;7.00;;;;;;;17.79;46.29;101862.34;4955650;28;20070;-70
2022/05/12 10:49:05;;;;;;;13.32;7.22;;;;;;;17.82;45.80;101857.09;4961029;28;20023;-70
2022/05/12 10:51:37;;;;;;;15.90;6.82;;;;;;;17.89;46.27;101853.63;4955033;28;20494;-70
2022/05/12 10:54:22;;;;;;;12.00;7.57;;;;;;;18.01;46.33;101845.00;4952439;28;20521;-71
2022/05/12 10:56:48;;;;;;;13.43;7.45;;;;;;;18.11;46.68;101850.38;4960517;28;20128;-70
2022/05/12 10:59:32;;;;;;;11.90;7.57;;;;;;;18.19;46.73;101852.19;4959990;28;20474;-70
2022/05/12 11:02:06;;;;;;;13.50;6.88;;;;;;;18.21;46.63;101850.44;4954251;28;20229;-69
2022/05/12 11:05:03;;;;;;;11.63;6.30;;;;;;;18.32;47.61;101842.63;4953237;28;20326;-70
2022/05/12 11:07:38;;;;;;;14.40;7.53;;;;;;;18.38;44.79;101849.69;4950543;28;20054;-70
2022/05/12 11:10:14;;;;;;;12.45;7.70;;;;;;;18.42;47.52;101838.28;4952361;28;20071;-70
2022/05/12 11:12:45;;;;;;;12.57;9.02;;;;;;;18.45;46.01;101834.78;4963950;28;20026;-70
2022/05/12 11:15:19;;;;;;;18.50;10.73;;;;;;;18.50;44.92;101840.97;4952354;28;20031;-69
2022/05/12 11:18:07;;;;;;;19.70;14.57;;;;;;;18.57;46.53;101843.66;4956041;28;20035;-70
2022/05/12 11:20:43;;;;;;;20.30;14.57;;;;;;;18.67;45.70;101831.41;4959172;28;20042;-71
2022/05/12 11:23:33;;;;;;;18.00;11.82;;;;;;;18.75;44.81;101834.09;4971146;28;20097;-70
2022/05/12 11:26:34;;;;;;;16.17;10.60;;;;;;;18.84;46.43;101842.06;4961230;28;20023;-70
2022/05/12 11:29:44;;;;;;;14.85;11.88;;;;;;;18.86;44.37;101840.34;4964331;28;20105;-69
2022/05/12 11:32:21;;;;;;;16.60;8.43;;;;;;;18.88;45.18;101835.94;4964986;28;20027;-71
2022/05/12 11:34:52;;;;;;;15.90;10.68;;;;;;;18.91;44.20;101835.94;4956518;28;20035;-70
2022/05/12 11:37:32;;;;;;;20.73;17.60;;;;;;;18.94;42.85;101843.00;4957136;28;20027;-71
2022/05/12 11:40:08;;;;;;;24.65;20.77;;;;;;;18.91;40.37;101832.44;4966468;28;20023;-70
2022/05/12 11:45:43;;;;;;;18.58;14.32;;;;;;;18.99;42.08;101830.72;4951845;28;20067;-69
2022/05/12 11:48:15;;;;;;;14.10;12.60;;;;;;;19.05;42.55;101832.50;4959427;28;20569;-70
2022/05/12 11:50:56;;;;;;;13.82;12.43;;;;;;;19.08;42.49;101825.47;4961412;28;20105;-70
2022/05/12 11:53:53;;;;;;;16.27;13.10;;;;;;;19.08;43.33;101825.47;4963888;28;20039;-69
2022/05/12 11:56:37;;;;;;;13.13;10.23;;;;;;;19.12;44.07;101826.38;4949124;28;20051;-79
2022/05/12 11:59:16;;;;;;;15.60;10.70;;;;;;;19.18;46.13;101822.88;4952311;28;20079;-83
2022/05/12 12:01:41;;;;;;;19.30;11.50;;;;;;;19.26;45.83;101829.97;4952946;28;20126;-77
2022/05/12 12:04:13;;;;;;;18.60;14.43;;;;;;;19.21;40.99;101836.09;4953846;28;20447;-76
2022/05/12 12:06:43;;;;;;;17.10;13.98;;;;;;;19.12;39.98;101831.66;4953333;28;20309;-78